Time;durP1;ratioP1;P1;durP2;ratioP2;P2;SDS_P1;SDS_P2;PMS_P1;PMS_P2;Temp;Humidity;BMP_temperature;BMP_pressure;BME280_temperature;BME280_humidity;BME280_pressure;Samples;Min_cycle;Max_cycle;Signal;HPM_P1;HPM_P2
2020/12/15 00:02:08;;;;;;;61.00;22.87;;;;;;;0.29;100.00;99420.50;4371058;80;44425;-85
2020/12/15 00:08:14;;;;;;;62.08;24.77;;;;;;;0.34;100.00;99423.02;4246866;82;28648;-85
2020/12/15 00:14:17;;;;;;;58.60;22.00;;;;;;;0.24;100.00;99427.07;4324763;81;28599;-85
2020/12/15 00:20:20;;;;;;;54.35;21.93;;;;;;;0.30;100.00;99426.12;4324281;81;28629;-85
2020/12/15 00:26:23;;;;;;;62.53;23.98;;;;;;;0.17;100.00;99435.30;4344865;81;42903;-85
2020/12/15 00:32:25;;;;;;;67.15;23.35;;;;;;;0.05;100.00;99439.99;4320776;81;43735;-85
2020/12/15 00:38:28;;;;;;;62.00;26.12;;;;;;;0.16;100.00;99435.45;4316279;81;42888;-85
2020/12/15 00:44:31;;;;;;;60.17;23.32;;;;;;;0.01;100.00;99439.13;4278923;82;44082;-84
2020/12/15 00:50:33;;;;;;;62.38;24.10;;;;;;;0.05;100.00;99445.28;4272547;82;43711;-83
2020/12/15 00:56:35;;;;;;;65.57;23.57;;;;;;;-0.09;100.00;99441.87;4283672;82;43772;-85
2020/12/15 01:02:41;;;;;;;61.60;23.55;;;;;;;-0.04;100.00;99435.14;4264729;82;43589;-85
2020/12/15 01:08:43;;;;;;;59.98;23.47;;;;;;;-0.16;100.00;99430.56;4286117;82;44272;-84
2020/12/15 01:14:47;;;;;;;71.00;23.77;;;;;;;-0.13;100.00;99428.59;4283606;82;44206;-84
2020/12/15 01:20:51;;;;;;;65.83;25.12;;;;;;;-0.24;100.00;99433.12;4271064;82;28590;-83
2020/12/15 01:27:01;;;;;;;57.85;23.35;;;;;;;-0.21;100.00;99436.81;4280822;82;44110;-83
2020/12/15 01:33:05;;;;;;;62.55;22.80;;;;;;;-0.14;100.00;99430.42;4293850;82;42904;-84
2020/12/15 01:39:09;;;;;;;64.12;23.45;;;;;;;-0.12;100.00;99419.20;4288170;81;43655;-83
2020/12/15 01:45:13;;;;;;;63.83;22.50;;;;;;;0.03;100.00;99418.17;4284061;82;28576;-85
2020/12/15 01:51:17;;;;;;;59.38;21.27;;;;;;;-0.18;100.00;99418.00;4387615;80;44130;-84
2020/12/15 01:57:21;;;;;;;58.15;22.15;;;;;;;-0.09;100.00;99420.72;4281762;82;44107;-84
2020/12/15 02:03:34;;;;;;;58.38;21.42;;;;;;;-0.05;100.00;99396.95;4464142;79;85591;-84
2020/12/15 02:09:57;;;;;;;61.48;22.10;;;;;;;0.16;100.00;99397.10;4489350;79;85540;-81
2020/12/15 02:16:12;;;;;;;61.68;21.48;;;;;;;-0.07;100.00;99399.73;4410068;80;44273;-83
2020/12/15 02:22:20;;;;;;;62.90;22.02;;;;;;;-0.35;100.00;99407.78;4406994;80;28548;-82
2020/12/15 02:28:22;;;;;;;58.68;21.85;;;;;;;-0.11;100.00;99401.52;4410156;80;44103;-82
2020/12/15 02:34:25;;;;;;;55.78;21.07;;;;;;;-0.45;100.00;99408.34;4415542;80;44102;-82
2020/12/15 02:40:29;;;;;;;62.95;22.27;;;;;;;-0.58;100.00;99406.87;4431515;80;44474;-82
2020/12/15 02:46:42;;;;;;;62.13;22.05;;;;;;;-0.43;100.00;99414.30;4422102;80;44533;-83
2020/12/15 02:52:44;;;;;;;52.55;20.77;;;;;;;-0.49;100.00;99406.48;4417726;80;44075;-82
2020/12/15 02:58:46;;;;;;;55.15;20.20;;;;;;;-0.21;100.00;99416.14;4436297;80;44166;-82
2020/12/15 03:04:50;;;;;;;54.98;21.68;;;;;;;-0.33;100.00;99409.77;4422892;80;44122;-84
2020/12/15 03:10:53;;;;;;;49.75;18.40;;;;;;;-0.47;100.00;99407.64;4414028;80;43746;-84
2020/12/15 03:16:55;;;;;;;49.23;19.50;;;;;;;-0.53;100.00;99400.33;4427143;80;43732;-86
2020/12/15 03:22:58;;;;;;;54.10;19.30;;;;;;;-0.63;100.00;99394.62;4424215;80;44151;-85
2020/12/15 03:29:03;;;;;;;54.77;20.48;;;;;;;-0.77;100.00;99402.56;4398738;80;28618;-83
2020/12/15 03:35:07;;;;;;;57.90;21.12;;;;;;;-0.69;100.00;99399.67;4403905;80;44095;-85
2020/12/15 03:41:11;;;;;;;50.98;19.85;;;;;;;-0.73;100.00;99395.17;4409443;80;43990;-85
2020/12/15 03:47:19;;;;;;;56.60;21.25;;;;;;;-0.77;100.00;99380.12;4408045;80;44386;-85
2020/12/15 03:53:22;;;;;;;52.15;20.97;;;;;;;-0.69;100.00;99387.28;4429140;80;43810;-85
2020/12/15 03:59:25;;;;;;;50.48;19.10;;;;;;;-0.78;100.00;99389.02;4410099;80;43744;-85
2020/12/15 04:05:27;;;;;;;52.53;20.12;;;;;;;-0.79;100.00;99387.84;4387652;80;44092;-84
2020/12/15 04:11:31;;;;;;;41.35;17.70;;;;;;;-0.99;100.00;99380.03;4408687;80;44459;-85
2020/12/15 04:17:37;;;;;;;47.15;19.10;;;;;;;-1.11;100.00;99382.06;4425863;80;43756;-85
2020/12/15 04:23:41;;;;;;;44.85;18.32;;;;;;;-1.04;100.00;99380.98;4410371;80;43785;-86
2020/12/15 04:29:44;;;;;;;43.92;17.40;;;;;;;-1.11;100.00;99388.66;4401248;80;43645;-84
2020/12/15 04:35:48;;;;;;;42.98;17.52;;;;;;;-1.10;100.00;99392.95;4412862;80;42869;-83
2020/12/15 04:41:51;;;;;;;44.50;17.45;;;;;;;-1.19;100.00;99398.63;4437816;80;43728;-84
2020/12/15 04:48:09;;;;;;;44.58;18.23;;;;;;;-1.23;100.00;99410.44;4416373;80;43728;-83
2020/12/15 04:54:33;;;;;;;43.33;19.20;;;;;;;-1.42;100.00;99407.39;4436892;80;43641;-81
2020/12/15 05:00:37;;;;;;;49.65;18.82;;;;;;;-1.47;100.00;99405.66;4410944;80;28575;-83
2020/12/15 05:06:54;;;;;;;43.90;17.73;;;;;;;-1.28;100.00;99402.14;4387005;79;85531;-83
2020/12/15 05:12:59;;;;;;;47.27;18.17;;;;;;;-1.50;100.00;99404.17;4314972;80;28671;-85
2020/12/15 05:19:04;;;;;;;42.67;17.82;;;;;;;-1.35;100.00;99405.00;4302219;81;43214;-85
2020/12/15 05:25:11;;;;;;;41.02;15.90;;;;;;;-1.26;100.00;99398.36;4294258;81;28607;-85
2020/12/15 05:31:15;;;;;;;35.78;15.45;;;;;;;-1.28;100.00;99405.59;4326285;80;44536;-82
2020/12/15 05:37:45;;;;;;;42.90;17.67;;;;;;;-1.14;100.00;99414.03;4592128;76;85124;-83
2020/12/15 05:43:59;;;;;;;41.33;15.75;;;;;;;-1.46;100.00;99407.32;4510026;78;44504;-82
2020/12/15 05:50:02;;;;;;;40.45;15.65;;;;;;;-1.21;100.00;99395.79;4499756;78;44437;-81
2020/12/15 05:56:06;;;;;;;44.05;16.95;;;;;;;-1.23;100.00;99396.43;4474307;78;43687;-86
2020/12/15 06:02:11;;;;;;;40.20;15.25;;;;;;;-1.28;100.00;99407.41;4512285;78;44452;-84
2020/12/15 06:08:15;;;;;;;41.40;16.05;;;;;;;-1.39;100.00;99424.24;4484470;78;44464;-84
2020/12/15 06:14:17;;;;;;;36.35;15.55;;;;;;;-1.50;100.00;99423.10;4508715;78;44427;-83
2020/12/15 06:20:20;;;;;;;40.17;15.63;;;;;;;-1.61;100.00;99439.94;4505330;78;44541;-83
2020/12/15 06:26:30;;;;;;;39.35;14.78;;;;;;;-1.52;100.00;99432.47;4506587;78;44420;-84
2020/12/15 06:32:32;;;;;;;38.98;15.88;;;;;;;-1.47;100.00;99431.56;4494949;78;44425;-85
2020/12/15 06:38:37;;;;;;;40.52;15.90;;;;;;;-1.47;100.00;99431.56;4479831;78;44513;-85
2020/12/15 06:44:39;;;;;;;34.98;13.55;;;;;;;-1.42;100.00;99437.73;4490921;78;44310;-84
2020/12/15 06:50:46;;;;;;;28.73;12.07;;;;;;;-1.18;100.00;99430.64;4491404;78;43387;-84
2020/12/15 06:57:08;;;;;;;32.23;13.98;;;;;;;-1.43;100.00;99436.88;4500535;78;44099;-84
2020/12/15 07:03:10;;;;;;;32.80;14.03;;;;;;;-1.34;100.00;99444.44;4508270;78;44222;-83
2020/12/15 07:09:12;;;;;;;32.33;13.32;;;;;;;-1.44;100.00;99431.77;4505280;78;44077;-84
2020/12/15 07:15:16;;;;;;;32.33;13.93;;;;;;;-1.62;100.00;99431.66;4494680;78;44097;-84
2020/12/15 07:21:19;;;;;;;31.95;12.80;;;;;;;-1.37;100.00;99416.20;4501318;78;44107;-85
2020/12/15 07:27:23;;;;;;;33.78;14.53;;;;;;;-1.31;100.00;99423.04;4470524;78;44134;-85
2020/12/15 07:33:25;;;;;;;32.58;13.85;;;;;;;-1.54;100.00;99427.83;4500004;78;44103;-84
2020/12/15 07:39:27;;;;;;;32.65;12.95;;;;;;;-1.52;100.00;99431.14;4490147;78;44075;-84
2020/12/15 07:45:32;;;;;;;35.73;13.75;;;;;;;-1.32;100.00;99429.30;4493889;78;44444;-84
2020/12/15 07:51:42;;;;;;;37.83;15.73;;;;;;;-1.21;100.00;99420.86;4504100;78;37229;-84
2020/12/15 07:57:44;;;;;;;35.90;15.72;;;;;;;-1.06;100.00;99418.56;4491934;78;44438;-83
2020/12/15 08:03:46;;;;;;;39.73;15.08;;;;;;;-0.96;100.00;99423.31;4499391;78;44436;-84
2020/12/15 08:09:49;;;;;;;39.48;15.10;;;;;;;-0.95;100.00;99422.33;4502912;78;44492;-84
2020/12/15 08:15:52;;;;;;;35.10;14.80;;;;;;;-0.94;100.00;99427.11;4518412;78;44262;-84
2020/12/15 08:21:56;;;;;;;39.50;17.05;;;;;;;-0.79;100.00;99422.16;4507942;78;44420;-84
2020/12/15 08:28:21;;;;;;;39.40;15.48;;;;;;;-0.89;100.00;99428.33;4480354;77;44448;-85
2020/12/15 08:34:24;;;;;;;43.20;15.75;;;;;;;-0.73;100.00;99426.86;4488895;78;44424;-86
2020/12/15 08:40:28;;;;;;;38.65;15.03;;;;;;;-1.05;100.00;99432.11;4487861;78;44424;-86
2020/12/15 08:46:35;;;;;;;46.95;17.65;;;;;;;-0.68;100.00;99437.80;4487641;78;43750;-85
2020/12/15 08:52:38;;;;;;;41.18;16.27;;;;;;;-0.73;100.00;99438.27;4499261;78;44498;-84
2020/12/15 08:58:42;;;;;;;37.38;16.45;;;;;;;-0.79;100.00;99434.05;4483776;78;44457;-84
2020/12/15 09:04:44;;;;;;;40.73;16.67;;;;;;;-0.66;100.00;99433.70;4483112;78;44424;-85
2020/12/15 09:10:50;;;;;;;41.68;17.20;;;;;;;-0.47;100.00;99431.41;4500639;78;44420;-81
2020/12/15 09:16:53;;;;;;;;;;;;;;;-0.43;100.00;99440.72;4503332;78;28538;-83
2020/12/15 09:22:55;;;;;;;42.78;16.40;;;;;;;-0.20;100.00;99437.63;4511604;77;43209;-85
2020/12/15 09:29:07;;;;;;;42.05;17.73;;;;;;;-0.12;100.00;99432.89;4504198;78;43675;-85
2020/12/15 09:35:11;;;;;;;39.83;15.98;;;;;;;0.08;100.00;99432.25;4507677;78;44429;-88
2020/12/15 09:41:13;;;;;;;41.63;17.35;;;;;;;0.59;100.00;99430.28;4473883;78;44463;-86
2020/12/15 09:47:15;;;;;;;35.40;16.30;;;;;;;0.67;100.00;99424.53;4509578;78;44444;-81
2020/12/15 09:53:19;;;;;;;39.38;16.37;;;;;;;0.55;100.00;99416.53;4488187;79;44433;-81
2020/12/15 09:59:22;;;;;;;39.05;15.40;;;;;;;0.66;100.00;99407.00;4509708;78;44450;-82
2020/12/15 10:05:24;;;;;;;43.23;17.60;;;;;;;1.06;100.00;99407.84;4458688;78;28594;-82
2020/12/15 10:11:28;;;;;;;43.87;18.85;;;;;;;0.89;100.00;99418.35;4521163;78;28558;-81
2020/12/15 10:17:30;;;;;;;44.58;17.55;;;;;;;0.70;100.00;99407.52;4518182;77;28536;-80
2020/12/15 10:23:34;;;;;;;43.65;17.05;;;;;;;0.32;100.00;99418.39;4495164;78;42875;-82
2020/12/15 10:29:37;;;;;;;41.48;16.95;;;;;;;0.31;100.00;99398.18;4506910;78;44475;-81
2020/12/15 10:35:39;;;;;;;42.35;17.73;;;;;;;0.36;100.00;99397.72;4501465;78;44105;-86
2020/12/15 10:41:45;;;;;;;40.20;17.27;;;;;;;0.41;100.00;99383.03;4496857;78;28566;-87
2020/12/15 10:47:48;;;;;;;44.83;18.42;;;;;;;0.45;100.00;99391.49;4469852;78;43753;-86
2020/12/15 10:53:52;;;;;;;38.40;16.70;;;;;;;0.17;100.00;99389.02;4469124;78;28542;-86
2020/12/15 10:59:57;;;;;;;39.27;16.48;;;;;;;0.56;100.00;99382.47;4502067;78;28599;-86
2020/12/15 11:05:59;;;;;;;43.78;18.87;;;;;;;0.71;100.00;99385.84;4475022;78;28673;-83
2020/12/15 11:12:04;;;;;;;44.20;18.37;;;;;;;0.87;100.00;99380.62;4496994;78;28558;-86
2020/12/15 11:18:09;;;;;;;43.02;18.92;;;;;;;0.80;100.00;99376.47;4477737;78;28637;-88
2020/12/15 11:24:26;;;;;;;43.60;18.05;;;;;;;0.97;100.00;99367.24;4485960;79;73829;-86
2020/12/15 11:30:43;;;;;;;50.28;20.97;;;;;;;0.96;100.00;99364.27;4395051;79;76819;-87
2020/12/15 11:36:54;;;;;;;45.08;18.05;;;;;;;0.91;100.00;99368.71;4309475;81;28584;-86
2020/12/15 11:42:58;;;;;;;44.20;18.40;;;;;;;0.94;100.00;99362.27;4346640;80;28577;-85
2020/12/15 11:49:13;;;;;;;62.57;30.47;;;;;;;1.01;100.00;99366.43;4329563;79;255082;-86
2020/12/15 11:55:17;;;;;;;56.58;27.95;;;;;;;1.39;100.00;99356.27;4283739;80;292376;-87
2020/12/15 12:01:22;;;;;;;54.45;23.32;;;;;;;1.73;100.00;99351.82;4316834;80;28597;-86
2020/12/15 12:07:25;;;;;;;51.75;20.15;;;;;;;1.51;100.00;99352.30;4291865;80;28618;-87
2020/12/15 12:13:28;;;;;;;47.35;19.57;;;;;;;1.29;100.00;99347.64;4307352;81;28616;-88
2020/12/15 12:19:31;;;;;;;50.23;20.68;;;;;;;1.27;100.00;99343.00;4316254;80;28557;-89
2020/12/15 12:25:37;;;;;;;45.23;18.90;;;;;;;1.34;100.00;99338.20;4326441;81;28615;-87
2020/12/15 12:31:39;;;;;;;58.20;23.02;;;;;;;1.45;100.00;99328.28;4350431;80;28651;-83
2020/12/15 12:37:44;;;;;;;51.35;20.25;;;;;;;1.16;100.00;99322.94;4329255;81;28621;-86
2020/12/15 12:44:00;;;;;;;50.75;20.82;;;;;;;1.44;100.00;99326.62;4526208;76;106068;-87
2020/12/15 12:50:04;;;;;;;46.90;20.62;;;;;;;1.52;100.00;99331.42;4419672;79;28620;-86
2020/12/15 12:56:06;;;;;;;48.68;20.30;;;;;;;1.61;100.00;99320.83;4435045;79;28674;-86
2020/12/15 13:02:11;;;;;;;54.70;23.17;;;;;;;1.50;100.00;99313.54;4432985;79;28604;-90
2020/12/15 13:08:13;;;;;;;56.65;22.30;;;;;;;1.63;100.00;99307.75;4443785;79;28608;-88
2020/12/15 13:14:18;;;;;;;59.10;23.20;;;;;;;1.61;100.00;99307.06;4431319;79;28631;-87
2020/12/15 13:20:20;;;;;;;58.02;23.22;;;;;;;1.19;100.00;99306.71;4423803;79;28591;-87
2020/12/15 13:26:23;;;;;;;58.10;23.52;;;;;;;1.17;100.00;99298.11;4404819;79;28580;-92
2020/12/15 13:32:25;;;;;;;63.20;25.05;;;;;;;1.20;100.00;99299.94;4422828;79;28580;-88
2020/12/15 13:38:28;;;;;;;62.58;23.57;;;;;;;1.21;100.00;99300.78;4432614;79;28715;-92
2020/12/15 13:44:31;;;;;;;63.00;23.42;;;;;;;1.12;100.00;99297.27;4462830;79;28596;-90
2020/12/15 13:50:35;;;;;;;66.25;24.32;;;;;;;1.19;100.00;99301.41;4476326;79;28533;-88
2020/12/15 13:56:41;;;;;;;66.30;23.42;;;;;;;1.22;100.00;99296.62;4399017;79;28575;-90
2020/12/15 14:02:43;;;;;;;59.08;23.12;;;;;;;1.30;100.00;99285.71;4425688;79;28595;-89
2020/12/15 14:08:48;;;;;;;62.67;23.40;;;;;;;1.04;100.00;99299.41;4309434;81;28587;-91
2020/12/15 14:14:52;;;;;;;59.33;22.85;;;;;;;1.00;100.00;99307.84;4304751;81;28562;-91
2020/12/15 14:20:54;;;;;;;60.43;24.00;;;;;;;0.89;100.00;99307.67;4301564;81;28577;-91
2020/12/15 14:26:57;;;;;;;63.95;23.83;;;;;;;0.92;100.00;99311.31;4290432;81;28580;-91
2020/12/15 14:33:00;;;;;;;66.45;23.70;;;;;;;0.92;100.00;99301.53;4287323;81;28589;-91
2020/12/15 14:39:07;;;;;;;58.35;22.58;;;;;;;0.78;100.00;99311.43;4279089;81;44096;-91
2020/12/15 14:45:09;;;;;;;53.75;21.55;;;;;;;0.65;100.00;99310.07;4298523;81;28550;-89
2020/12/15 14:51:11;;;;;;;52.93;21.60;;;;;;;0.72;100.00;99308.94;4309797;81;28589;-90
2020/12/15 14:57:48;;;;;;;52.08;21.97;;;;;;;0.36;100.00;99303.33;4271585;81;44036;-93
2020/12/15 15:03:50;;;;;;;50.05;21.87;;;;;;;0.23;100.00;99301.11;4256388;82;44016;-90
2020/12/15 15:09:53;;;;;;;56.15;22.55;;;;;;;0.33;100.00;99305.45;4331682;81;44077;-89
2020/12/15 15:15:56;;;;;;;53.70;21.73;;;;;;;0.16;100.00;99300.58;4312104;81;44138;-91
2020/12/15 15:21:58;;;;;;;51.25;19.90;;;;;;;0.21;100.00;99303.57;4284787;81;44057;-91
2020/12/15 15:28:06;;;;;;;61.65;21.57;;;;;;;0.14;100.00;99309.98;4310747;81;28712;-89
2020/12/15 15:59:43;;;;;;;52.90;20.55;;;;;;;0.21;100.00;99302.25;4253238;82;44233;-93
2020/12/15 16:05:55;;;;;;;54.38;21.42;;;;;;;0.37;100.00;99316.89;4161679;82;44094;-89
2020/12/15 16:11:57;;;;;;;57.85;23.73;;;;;;;0.31;100.00;99307.44;4214248;81;44084;-89
2020/12/15 16:18:00;;;;;;;53.38;23.35;;;;;;;0.20;100.00;99305.88;4152233;83;44114;-91
2020/12/15 16:24:02;;;;;;;56.88;22.62;;;;;;;0.43;100.00;99314.11;4238041;82;44100;-86
2020/12/15 16:30:05;;;;;;;58.90;25.60;;;;;;;0.31;100.00;99313.54;4216052;82;28593;-91
2020/12/15 16:36:17;;;;;;;64.58;25.27;;;;;;;0.37;100.00;99306.82;4216087;83;42880;-86
2020/12/15 16:42:46;;;;;;;58.95;24.05;;;;;;;0.22;100.00;99308.71;4220200;82;44458;-89
2020/12/15 16:48:48;;;;;;;53.92;22.55;;;;;;;0.25;100.00;99316.84;4219450;82;28595;-88
2020/12/15 16:54:53;;;;;;;54.08;23.70;;;;;;;0.23;100.00;99309.05;4210757;83;28622;-89
2020/12/15 17:00:56;;;;;;;57.65;23.32;;;;;;;0.14;100.00;99308.66;4211532;83;44158;-91
2020/12/15 17:06:58;;;;;;;55.48;23.30;;;;;;;0.27;100.00;99306.92;4200364;83;44138;-90
2020/12/15 17:13:01;;;;;;;54.50;24.67;;;;;;;0.38;100.00;99307.97;4226934;83;44080;-92
2020/12/15 17:19:03;;;;;;;58.42;24.87;;;;;;;0.19;100.00;99307.72;4221433;83;44119;-88
2020/12/15 17:25:10;;;;;;;63.20;25.65;;;;;;;0.21;100.00;99303.09;4189928;82;28697;-88
2020/12/15 17:31:12;;;;;;;58.45;23.87;;;;;;;0.34;100.00;99301.83;4189287;83;44112;-90
2020/12/15 17:37:15;;;;;;;58.70;25.15;;;;;;;0.08;100.00;99300.86;4167667;83;43664;-90
2020/12/15 17:43:19;;;;;;;61.05;25.82;;;;;;;0.09;100.00;99317.57;4243978;82;28649;-91
2020/12/15 17:49:23;;;;;;;62.00;25.52;;;;;;;-0.03;100.00;99319.16;4250252;83;42888;-88
2020/12/15 17:55:25;;;;;;;63.23;26.02;;;;;;;-0.13;100.00;99316.27;4227736;83;43211;-89
2020/12/15 18:01:29;;;;;;;67.10;27.15;;;;;;;0.18;100.00;99318.44;4243831;83;43748;-85
2020/12/15 18:07:32;;;;;;;61.55;25.70;;;;;;;-0.10;100.00;99325.22;4207005;82;28613;-85
2020/12/15 18:13:34;;;;;;;66.87;28.17;;;;;;;0.14;100.00;99317.91;4212784;83;44115;-86
2020/12/15 18:19:36;;;;;;;69.22;28.15;;;;;;;0.08;100.00;99321.20;4274069;82;44085;-90
2020/12/15 18:25:44;;;;;;;69.00;27.30;;;;;;;0.17;100.00;99327.36;4183605;83;44080;-89
2020/12/15 18:31:52;;;;;;;65.97;27.47;;;;;;;0.11;100.00;99323.53;4172950;83;28608;-88
2020/12/15 18:44:09;;;;;;;76.72;29.30;;;;;;;0.11;100.00;99312.95;4613777;76;70227;-87
2020/12/15 18:50:11;;;;;;;68.90;28.83;;;;;;;0.21;100.00;99322.92;4394084;80;44107;-88
2020/12/15 18:56:13;;;;;;;77.05;29.80;;;;;;;0.06;100.00;99328.47;4344921;81;43627;-87
2020/12/15 19:02:15;;;;;;;71.22;29.23;;;;;;;0.13;100.00;99329.48;4386709;80;44091;-90
2020/12/15 19:08:18;;;;;;;73.28;29.72;;;;;;;0.19;100.00;99328.87;4312068;81;44198;-87
2020/12/15 19:14:21;;;;;;;76.25;30.62;;;;;;;0.10;100.00;99335.91;4323526;81;43640;-89
2020/12/15 19:20:24;;;;;;;70.65;30.32;;;;;;;0.16;100.00;99337.60;4329479;81;44126;-93
2020/12/15 19:26:32;;;;;;;75.83;30.45;;;;;;;0.10;100.00;99329.30;4389969;80;43219;-88
2020/12/15 19:32:34;;;;;;;67.62;28.85;;;;;;;0.08;100.00;99345.81;4387160;80;28584;-89
2020/12/15 19:38:36;;;;;;;70.87;28.15;;;;;;;-0.08;100.00;99354.97;4384847;80;44103;-87
2020/12/15 19:44:38;;;;;;;73.52;30.20;;;;;;;-0.17;100.00;99359.34;4395494;80;44088;-88
2020/12/15 19:50:41;;;;;;;81.63;31.48;;;;;;;0.06;100.00;99367.62;4378344;80;43054;-86
2020/12/15 19:56:43;;;;;;;76.07;32.03;;;;;;;0.11;100.00;99360.55;4366683;80;43670;-81
2020/12/15 20:02:46;;;;;;;80.87;33.78;;;;;;;-0.17;100.00;99355.38;4348848;81;43067;-89
2020/12/15 20:08:50;;;;;;;88.37;32.33;;;;;;;-0.06;100.00;99360.93;4387819;80;28597;-93
2020/12/15 20:22:47;;;;;;;79.72;29.92;;;;;;;-0.27;100.00;99375.78;4327842;81;28557;-96
2020/12/15 20:28:50;;;;;;;88.52;33.42;;;;;;;-0.14;100.00;99392.10;4318779;81;44120;-94
2020/12/15 20:34:56;;;;;;;96.80;36.93;;;;;;;-0.25;100.00;99391.83;4339927;80;44549;-87
2020/12/15 20:40:59;;;;;;;85.28;33.13;;;;;;;-0.42;100.00;99392.18;4375021;80;44113;-89
2020/12/15 20:47:05;;;;;;;95.55;38.83;;;;;;;-0.26;100.00;99393.30;4296530;81;44459;-91
2020/12/15 20:53:07;;;;;;;101.35;38.53;;;;;;;-0.35;100.00;99390.60;4375504;80;43074;-86
2020/12/15 20:59:09;;;;;;;84.13;35.23;;;;;;;-0.32;100.00;99399.54;4262518;81;43769;-90
2020/12/15 21:05:19;;;;;;;97.05;37.93;;;;;;;-0.37;100.00;99404.94;4368410;80;44456;-90
2020/12/15 21:11:28;;;;;;;94.60;38.83;;;;;;;-0.48;100.00;99422.67;4395644;80;44426;-91
2020/12/15 21:17:31;;;;;;;104.07;39.73;;;;;;;-0.42;100.00;99423.88;4397389;80;43556;-87
2020/12/15 21:23:34;;;;;;;94.52;37.05;;;;;;;-0.67;100.00;99416.20;4392667;79;44469;-89
2020/12/15 21:29:36;;;;;;;88.67;35.38;;;;;;;-0.43;100.00;99415.63;4395839;80;44427;-87
2020/12/15 21:35:39;;;;;;;84.62;34.95;;;;;;;-0.67;100.00;99430.72;4384555;80;43634;-86
2020/12/15 21:41:58;;;;;;;81.53;35.40;;;;;;;-0.54;100.00;99417.97;4346290;80;43382;-86
2020/12/15 21:48:01;;;;;;;78.87;33.38;;;;;;;-0.77;100.00;99419.72;4286283;81;43117;-85
2020/12/15 21:54:04;;;;;;;89.72;35.13;;;;;;;-0.63;100.00;99436.87;4284522;81;44266;-91
2020/12/15 22:00:06;;;;;;;102.85;38.92;;;;;;;-0.76;100.00;99439.87;4304877;81;43056;-89
2020/12/15 22:06:11;;;;;;;98.30;38.85;;;;;;;-0.99;100.00;99433.66;4295018;81;28576;-88
2020/12/15 22:12:14;;;;;;;102.45;39.48;;;;;;;-1.01;100.00;99441.38;4309167;81;43611;-88
2020/12/15 22:18:17;;;;;;;104.80;40.23;;;;;;;-0.94;100.00;99446.43;4303601;81;43939;-91
2020/12/15 22:24:20;;;;;;;112.55;43.33;;;;;;;-0.76;100.00;99458.86;4306146;81;44782;-86
2020/12/15 22:30:22;;;;;;;115.40;45.15;;;;;;;-0.64;100.00;99468.23;4387065;80;43859;-88
2020/12/15 22:36:24;;;;;;;123.00;45.95;;;;;;;-0.76;100.00;99462.81;4379418;80;43957;-86
2020/12/15 22:42:27;;;;;;;128.82;51.00;;;;;;;-0.82;100.00;99454.15;4304803;81;43358;-86
2020/12/15 22:48:30;;;;;;;133.10;49.08;;;;;;;-0.80;100.00;99458.79;4374416;80;44343;-88
2020/12/15 22:54:32;;;;;;;117.72;46.63;;;;;;;-0.91;100.00;99454.05;4372515;80;43921;-87
2020/12/15 23:00:38;;;;;;;123.78;48.85;;;;;;;-0.90;100.00;99457.02;4382766;80;44596;-88
2020/12/15 23:06:44;;;;;;;123.25;47.05;;;;;;;-0.88;100.00;99469.61;4383378;80;44296;-87
2020/12/15 23:12:46;;;;;;;132.03;52.93;;;;;;;-0.90;100.00;99461.49;4371277;80;43208;-85
2020/12/15 23:18:48;;;;;;;126.55;49.45;;;;;;;-1.16;100.00;99466.94;4341790;80;44646;-87
2020/12/15 23:24:51;;;;;;;132.10;47.95;;;;;;;-1.19;100.00;99469.03;4355541;81;44266;-88
2020/12/15 23:30:53;;;;;;;126.70;47.67;;;;;;;-1.21;100.00;99469.67;4352547;80;44250;-89
2020/12/15 23:36:55;;;;;;;116.05;47.60;;;;;;;-1.26;100.00;99464.82;4365203;80;43963;-88
2020/12/15 23:42:57;;;;;;;120.85;47.53;;;;;;;-1.34;100.00;99464.70;4369684;80;43982;-89
2020/12/15 23:48:59;;;;;;;119.40;46.77;;;;;;;-1.38;100.00;99468.61;4311574;81;43900;-90
2020/12/15 23:55:02;;;;;;;121.33;46.10;;;;;;;-1.43;100.00;99476.45;4306480;81;43942;-89
